Time;durP1;ratioP1;P1;durP2;ratioP2;P2;SDS_P1;SDS_P2;PMS_P1;PMS_P2;Temp;Humidity;BMP_temperature;BMP_pressure;BME280_temperature;BME280_humidity;BME280_pressure;Samples;Min_cycle;Max_cycle;Signal;HPM_P1;HPM_P2
2023/09/01 00:00:49;;;;;;;1.30;1.30;;;;;;;;;;10440399;28;20262;-69
2023/09/01 00:06:12;;;;;;;1.50;1.40;;;;;;;;;;10424531;28;20215;-70
2023/09/01 00:11:14;;;;;;;1.10;1.10;;;;;;;;;;10405806;28;20825;-69
2023/09/01 00:16:15;;;;;;;2.13;1.15;;;;;;;;;;10424932;28;20377;-69
2023/09/01 00:21:17;;;;;;;1.50;1.40;;;;;;;;;;10425850;28;20242;-72
2023/09/01 00:26:18;;;;;;;1.38;1.33;;;;;;;;;;10422806;28;20238;-69
2023/09/01 00:31:22;;;;;;;1.33;1.23;;;;;;;;;;10401605;28;20345;-67
2023/09/01 00:36:23;;;;;;;1.52;1.50;;;;;;;;;;10427440;28;20214;-72
2023/09/01 00:41:24;;;;;;;0.90;0.90;;;;;;;;;;10426799;28;20211;-74
2023/09/01 00:46:26;;;;;;;1.20;1.10;;;;;;;;;;10425743;28;20226;-68
2023/09/01 00:51:28;;;;;;;1.48;1.38;;;;;;;;;;10394879;28;20219;-68
2023/09/01 00:56:30;;;;;;;1.20;1.20;;;;;;;;;;10407064;28;20344;-69
2023/09/01 01:01:32;;;;;;;1.00;0.95;;;;;;;;;;10414070;28;20218;-72
2023/09/01 01:06:34;;;;;;;0.98;0.98;;;;;;;;;;10423582;28;20207;-69
2023/09/01 01:11:35;;;;;;;1.00;1.00;;;;;;;;;;10423775;28;20230;-71
2023/09/01 01:16:36;;;;;;;1.00;1.00;;;;;;;;;;10425300;28;20233;-67
2023/09/01 01:21:38;;;;;;;0.82;0.82;;;;;;;;;;10423050;28;20238;-71
2023/09/01 01:26:40;;;;;;;1.25;1.25;;;;;;;;;;10407779;28;20276;-71
2023/09/01 01:31:42;;;;;;;0.90;0.90;;;;;;;;;;10405535;28;20318;-69
2023/09/01 01:36:49;;;;;;;1.00;1.00;;;;;;;;;;10409861;28;20222;-68
2023/09/01 01:42:06;;;;;;;0.68;0.68;;;;;;;;;;10423194;28;20223;-67
2023/09/01 01:47:08;;;;;;;0.65;0.65;;;;;;;;;;10422124;28;20219;-70
2023/09/01 01:52:09;;;;;;;1.30;1.20;;;;;;;;;;10432011;28;20234;-69
2023/09/01 01:57:14;;;;;;;1.25;1.20;;;;;;;;;;10405735;28;20226;-71
2023/09/01 02:02:15;;;;;;;1.05;1.05;;;;;;;;;;10424064;28;20243;-71
2023/09/01 02:07:16;;;;;;;3.97;1.38;;;;;;;;;;10421600;28;20243;-67
2023/09/01 02:12:17;;;;;;;0.93;0.93;;;;;;;;;;10417603;28;20222;-72
2023/09/01 02:17:18;;;;;;;1.02;1.00;;;;;;;;;;10426965;28;20705;-67
2023/09/01 02:22:19;;;;;;;2.20;1.40;;;;;;;;;;10426284;28;20216;-70
2023/09/01 02:27:20;;;;;;;1.63;1.30;;;;;;;;;;10424522;28;20264;-68
2023/09/01 02:32:22;;;;;;;1.33;1.25;;;;;;;;;;10421262;28;20227;-75
2023/09/01 02:37:24;;;;;;;2.17;1.10;;;;;;;;;;10422933;28;20222;-71
2023/09/01 02:42:25;;;;;;;1.33;1.23;;;;;;;;;;10429543;28;20227;-71
2023/09/01 02:47:27;;;;;;;1.88;1.50;;;;;;;;;;10427481;28;20654;-71
2023/09/01 02:52:28;;;;;;;0.82;0.82;;;;;;;;;;10422170;28;20221;-71
2023/09/01 02:57:29;;;;;;;3.25;1.58;;;;;;;;;;10426264;28;20571;-68
2023/09/01 03:02:31;;;;;;;1.35;1.35;;;;;;;;;;10444497;28;20221;-70
2023/09/01 03:07:32;;;;;;;1.63;1.52;;;;;;;;;;10444696;28;20700;-72
2023/09/01 03:12:33;;;;;;;1.73;0.95;;;;;;;;;;10453164;28;20221;-73
2023/09/01 03:17:35;;;;;;;2.35;1.60;;;;;;;;;;10463465;28;20708;-68
2023/09/01 03:22:37;;;;;;;1.48;1.38;;;;;;;;;;10443111;28;20295;-69
2023/09/01 03:27:39;;;;;;;1.20;1.20;;;;;;;;;;10450854;28;20395;-73
2023/09/01 03:32:40;;;;;;;1.27;1.27;;;;;;;;;;10432426;28;20227;-72
2023/09/01 03:37:41;;;;;;;1.45;1.35;;;;;;;;;;10429339;28;20222;-69
2023/09/01 03:42:42;;;;;;;2.90;1.33;;;;;;;;;;10428624;28;20218;-69
2023/09/01 03:47:43;;;;;;;1.25;1.25;;;;;;;;;;10409221;28;20792;-67
2023/09/01 03:52:44;;;;;;;1.60;1.35;;;;;;;;;;10424331;28;20219;-67
2023/09/01 03:57:45;;;;;;;1.67;1.50;;;;;;;;;;10426543;28;20306;-71
2023/09/01 04:02:46;;;;;;;1.75;1.52;;;;;;;;;;10429297;28;20470;-67
2023/09/01 04:07:48;;;;;;;3.97;1.70;;;;;;;;;;10422292;28;20615;-69
2023/09/01 04:12:49;;;;;;;2.15;2.05;;;;;;;;;;10425748;28;20301;-69
2023/09/01 04:17:50;;;;;;;2.20;2.10;;;;;;;;;;10426904;28;20746;-75
2023/09/01 04:22:51;;;;;;;2.47;2.28;;;;;;;;;;10432628;28;20226;-68
2023/09/01 04:27:52;;;;;;;4.25;1.77;;;;;;;;;;10421168;28;20297;-68
2023/09/01 04:32:53;;;;;;;1.80;1.80;;;;;;;;;;10408984;28;20611;-71
2023/09/01 04:37:54;;;;;;;1.90;1.80;;;;;;;;;;10427315;28;20470;-72
2023/09/01 04:42:55;;;;;;;2.22;2.13;;;;;;;;;;10420906;28;20207;-67
2023/09/01 04:47:56;;;;;;;1.52;1.40;;;;;;;;;;10425707;28;20306;-74
2023/09/01 04:52:58;;;;;;;1.73;1.67;;;;;;;;;;10423683;28;20593;-68
2023/09/01 04:57:59;;;;;;;1.42;1.33;;;;;;;;;;10409786;28;20775;-68
2023/09/01 05:03:00;;;;;;;2.05;1.92;;;;;;;;;;10425902;28;20238;-71
2023/09/01 05:08:01;;;;;;;2.88;1.58;;;;;;;;;;10423536;28;20273;-70
2023/09/01 05:13:02;;;;;;;1.77;1.67;;;;;;;;;;10422439;28;20761;-71
2023/09/01 05:18:03;;;;;;;2.25;2.15;;;;;;;;;;10423819;28;20606;-68
2023/09/01 05:23:04;;;;;;;2.25;1.83;;;;;;;;;;10419670;28;20433;-68
2023/09/01 05:28:07;;;;;;;2.10;1.92;;;;;;;;;;10427204;28;20219;-70
2023/09/01 05:33:08;;;;;;;1.77;1.67;;;;;;;;;;10408103;28;20253;-72
2023/09/01 05:38:09;;;;;;;2.42;2.22;;;;;;;;;;10423763;28;20215;-67
2023/09/01 05:43:17;;;;;;;2.90;1.88;;;;;;;;;;10422261;28;20622;-70
2023/09/01 05:48:18;;;;;;;2.53;1.95;;;;;;;;;;10423180;28;20227;-70
2023/09/01 05:53:19;;;;;;;3.20;2.03;;;;;;;;;;10430455;28;21386;-71
2023/09/01 05:58:20;;;;;;;1.50;1.50;;;;;;;;;;10421811;28;20599;-71
2023/09/01 06:03:21;;;;;;;2.75;2.55;;;;;;;;;;10423585;28;20324;-72
2023/09/01 06:08:22;;;;;;;1.83;1.83;;;;;;;;;;10421091;28;20846;-70
2023/09/01 06:13:23;;;;;;;2.60;2.03;;;;;;;;;;10422025;28;20206;-71
2023/09/01 06:18:25;;;;;;;2.65;2.35;;;;;;;;;;10408233;28;20378;-69
2023/09/01 06:23:26;;;;;;;2.33;2.13;;;;;;;;;;10420736;28;20214;-73
2023/09/01 06:28:27;;;;;;;2.35;2.17;;;;;;;;;;10427164;28;20253;-69
2023/09/01 06:33:28;;;;;;;2.90;2.33;;;;;;;;;;10420755;28;20234;-71
2023/09/01 06:38:29;;;;;;;2.20;2.10;;;;;;;;;;10420439;28;20284;-69
2023/09/01 06:43:31;;;;;;;3.13;2.45;;;;;;;;;;10424823;28;20234;-71
2023/09/01 06:48:32;;;;;;;2.30;2.20;;;;;;;;;;10419517;28;20217;-72
2023/09/01 06:53:33;;;;;;;2.17;2.08;;;;;;;;;;10421562;28;20207;-73
2023/09/01 06:58:34;;;;;;;2.15;2.05;;;;;;;;;;10421489;28;20215;-71
2023/09/01 07:03:35;;;;;;;2.13;2.03;;;;;;;;;;10424091;28;20569;-71
2023/09/01 07:08:36;;;;;;;1.60;1.60;;;;;;;;;;10421259;28;20219;-69
2023/09/01 07:13:37;;;;;;;1.77;1.67;;;;;;;;;;10425120;28;20390;-69
2023/09/01 07:18:38;;;;;;;1.80;1.80;;;;;;;;;;10423877;28;20230;-70
2023/09/01 07:23:39;;;;;;;2.45;1.70;;;;;;;;;;10423594;28;20219;-69
2023/09/01 07:28:41;;;;;;;2.00;1.80;;;;;;;;;;10402470;28;20249;-69
2023/09/01 07:33:42;;;;;;;4.68;2.08;;;;;;;;;;10417504;28;20237;-69
2023/09/01 07:38:43;;;;;;;1.88;1.77;;;;;;;;;;10401504;28;20592;-71
2023/09/01 07:43:44;;;;;;;2.80;1.50;;;;;;;;;;10421055;28;20211;-69
2023/09/01 07:48:46;;;;;;;1.48;1.42;;;;;;;;;;10383854;28;20306;-70
2023/09/01 07:53:47;;;;;;;1.50;1.40;;;;;;;;;;10398749;28;20732;-69
2023/09/01 07:58:48;;;;;;;1.30;1.20;;;;;;;;;;10396928;28;20250;-70
2023/09/01 08:03:49;;;;;;;1.00;1.00;;;;;;;;;;10389457;28;20217;-71
2023/09/01 08:08:50;;;;;;;1.85;1.45;;;;;;;;;;10409032;28;20218;-71
2023/09/01 08:13:51;;;;;;;2.30;1.40;;;;;;;;;;10423881;28;20202;-70
2023/09/01 08:18:53;;;;;;;0.82;0.82;;;;;;;;;;10423585;28;20717;-72
2023/09/01 08:23:54;;;;;;;1.15;1.08;;;;;;;;;;10419421;28;20230;-72
2023/09/01 08:28:56;;;;;;;1.50;1.40;;;;;;;;;;10405000;28;20211;-73
2023/09/01 08:33:58;;;;;;;2.30;1.00;;;;;;;;;;10416685;28;20948;-73
2023/09/01 08:38:59;;;;;;;1.90;1.13;;;;;;;;;;10424264;28;20229;-73
2023/09/01 08:44:04;;;;;;;1.20;1.20;;;;;;;;;;10426017;28;20216;-72
2023/09/01 08:49:05;;;;;;;2.28;1.27;;;;;;;;;;10414524;28;20233;-73
2023/09/01 08:54:08;;;;;;;1.95;1.70;;;;;;;;;;10410998;28;20595;-72
2023/09/01 08:59:10;;;;;;;3.58;1.85;;;;;;;;;;10418705;28;20246;-71
2023/09/01 09:04:11;;;;;;;1.63;1.00;;;;;;;;;;10407159;28;20716;-72
2023/09/01 09:09:14;;;;;;;1.73;1.20;;;;;;;;;;10420837;28;20288;-72
2023/09/01 09:14:15;;;;;;;4.75;1.30;;;;;;;;;;10414303;28;20729;-73
2023/09/01 09:19:18;;;;;;;1.75;1.10;;;;;;;;;;10372568;28;20722;-72
2023/09/01 09:24:33;;;;;;;3.42;1.13;;;;;;;;;;10364782;28;20221;-73
2023/09/01 09:29:41;;;;;;;1.13;1.10;;;;;;;;;;10347826;28;20624;-70
2023/09/01 09:34:43;;;;;;;1.30;1.30;;;;;;;;;;10382873;28;20204;-72
2023/09/01 09:39:44;;;;;;;1.20;1.20;;;;;;;;;;10379847;28;20651;-72
2023/09/01 09:44:49;;;;;;;1.08;1.05;;;;;;;;;;10349242;28;20215;-73
2023/09/01 09:49:50;;;;;;;1.65;1.55;;;;;;;;;;10365707;28;20249;-72
2023/09/01 09:54:52;;;;;;;1.40;1.15;;;;;;;;;;10346856;28;20388;-71
2023/09/01 09:59:56;;;;;;;1.25;1.10;;;;;;;;;;10347398;28;20215;-72
2023/09/01 10:04:58;;;;;;;3.13;1.50;;;;;;;;;;10378315;28;20203;-72
2023/09/01 10:10:00;;;;;;;1.48;1.00;;;;;;;;;;10348272;28;20208;-73
2023/09/01 10:15:03;;;;;;;2.60;0.90;;;;;;;;;;10359668;28;20275;-74
2023/09/01 10:20:07;;;;;;;0.60;0.60;;;;;;;;;;10413015;28;20212;-73
2023/09/01 10:25:10;;;;;;;0.80;0.80;;;;;;;;;;10422223;28;20221;-73
2023/09/01 10:30:24;;;;;;;0.98;0.77;;;;;;;;;;10420737;28;20310;-74
2023/09/01 10:35:38;;;;;;;0.65;0.65;;;;;;;;;;10413326;28;20628;-73
2023/09/01 10:40:43;;;;;;;1.30;0.80;;;;;;;;;;10420449;28;20210;-74
2023/09/01 10:46:04;;;;;;;1.60;0.80;;;;;;;;;;10426840;28;20297;-73
2023/09/01 10:51:37;;;;;;;1.42;1.02;;;;;;;;;;10405213;28;20246;-74
2023/09/01 10:56:51;;;;;;;1.10;1.10;;;;;;;;;;10416952;28;20221;-76
2023/09/01 11:01:53;;;;;;;4.07;1.20;;;;;;;;;;10410492;28;20246;-73
2023/09/01 11:07:00;;;;;;;0.80;0.80;;;;;;;;;;10420299;28;20211;-73
2023/09/01 11:12:05;;;;;;;0.60;0.60;;;;;;;;;;10403766;28;20245;-73
2023/09/01 11:17:06;;;;;;;1.05;0.80;;;;;;;;;;10401518;28;20230;-72
2023/09/01 11:22:07;;;;;;;0.70;0.70;;;;;;;;;;10408179;28;20226;-73
2023/09/01 11:27:10;;;;;;;1.83;0.85;;;;;;;;;;10414622;28;20218;-73
2023/09/01 11:32:24;;;;;;;1.63;0.90;;;;;;;;;;10422417;28;20672;-74
2023/09/01 11:37:39;;;;;;;0.90;0.90;;;;;;;;;;10407770;28;20210;-77
2023/09/01 11:42:42;;;;;;;0.98;0.73;;;;;;;;;;10437661;28;20214;-74
2023/09/01 11:47:43;;;;;;;0.73;0.73;;;;;;;;;;10440156;28;20922;-71
2023/09/01 11:52:51;;;;;;;0.85;0.80;;;;;;;;;;10429137;28;20214;-70
2023/09/01 11:57:53;;;;;;;1.00;0.85;;;;;;;;;;10424766;28;20217;-74
2023/09/01 12:02:54;;;;;;;0.75;0.70;;;;;;;;;;10430852;28;20200;-72
2023/09/01 12:07:55;;;;;;;1.25;1.25;;;;;;;;;;10418387;28;20220;-73
2023/09/01 12:13:02;;;;;;;0.93;0.90;;;;;;;;;;10407297;28;20265;-70
2023/09/01 12:18:22;;;;;;;0.80;0.77;;;;;;;;;;10412514;28;20281;-73
2023/09/01 12:23:30;;;;;;;0.95;0.80;;;;;;;;;;10427331;28;20696;-72
2023/09/01 12:28:33;;;;;;;0.50;0.50;;;;;;;;;;10427282;28;20207;-74
2023/09/01 12:33:37;;;;;;;1.00;0.70;;;;;;;;;;10427380;28;20203;-74
2023/09/01 12:38:38;;;;;;;1.02;0.50;;;;;;;;;;10423471;28;20211;-75
2023/09/01 12:43:39;;;;;;;0.88;0.70;;;;;;;;;;10429480;28;20299;-73
2023/09/01 12:48:41;;;;;;;1.20;0.70;;;;;;;;;;10429292;28;20203;-73
2023/09/01 12:53:42;;;;;;;0.55;0.55;;;;;;;;;;10405930;28;20214;-73
2023/09/01 12:58:43;;;;;;;4.13;0.60;;;;;;;;;;10429193;28;20222;-74
2023/09/01 13:03:44;;;;;;;2.00;0.73;;;;;;;;;;10427486;28;20211;-74
2023/09/01 13:08:45;;;;;;;1.00;0.70;;;;;;;;;;10423188;28;20737;-74
2023/09/01 13:13:46;;;;;;;0.63;0.63;;;;;;;;;;10409068;28;20207;-72
2023/09/01 13:18:47;;;;;;;2.67;0.70;;;;;;;;;;10429533;28;20433;-74
2023/09/01 13:23:49;;;;;;;1.35;0.73;;;;;;;;;;10427846;28;20253;-73
2023/09/01 13:28:50;;;;;;;0.73;0.50;;;;;;;;;;10425608;28;20257;-72
2023/09/01 13:33:51;;;;;;;1.33;0.65;;;;;;;;;;10407059;28;20206;-72
2023/09/01 13:38:52;;;;;;;1.20;0.80;;;;;;;;;;10409988;28;20804;-74
2023/09/01 13:43:53;;;;;;;0.60;0.60;;;;;;;;;;10431386;28;20804;-70
2023/09/01 13:48:55;;;;;;;0.70;0.70;;;;;;;;;;10422136;28;20688;-69
2023/09/01 13:53:56;;;;;;;0.85;0.70;;;;;;;;;;10419860;28;20296;-73
2023/09/01 13:58:57;;;;;;;1.17;1.08;;;;;;;;;;10426602;28;20332;-72
2023/09/01 14:03:59;;;;;;;0.60;0.60;;;;;;;;;;10409092;28;20624;-73
2023/09/01 14:09:03;;;;;;;1.30;0.85;;;;;;;;;;10427811;28;20260;-72
2023/09/01 14:14:04;;;;;;;3.22;0.70;;;;;;;;;;10422840;28;20258;-72
2023/09/01 14:19:06;;;;;;;0.75;0.75;;;;;;;;;;10423562;28;20236;-74
2023/09/01 14:24:10;;;;;;;0.95;0.80;;;;;;;;;;10419251;28;20207;-72
2023/09/01 14:29:11;;;;;;;0.90;0.90;;;;;;;;;;10410272;28;20223;-71
2023/09/01 14:34:12;;;;;;;3.03;0.88;;;;;;;;;;10420683;28;20252;-72
2023/09/01 14:39:13;;;;;;;2.35;0.90;;;;;;;;;;10417746;28;20638;-73
2023/09/01 14:44:15;;;;;;;0.43;0.43;;;;;;;;;;10402712;28;20211;-72
2023/09/01 14:49:16;;;;;;;0.75;0.75;;;;;;;;;;10421186;28;20802;-73
2023/09/01 14:54:17;;;;;;;0.95;0.77;;;;;;;;;;10402095;28;20206;-73
2023/09/01 14:59:18;;;;;;;0.65;0.65;;;;;;;;;;10419684;28;20210;-73
2023/09/01 15:04:19;;;;;;;1.75;0.60;;;;;;;;;;10419807;28;20309;-72
2023/09/01 15:09:20;;;;;;;1.00;1.00;;;;;;;;;;10402386;28;20225;-72
2023/09/01 15:14:21;;;;;;;0.90;0.90;;;;;;;;;;10423463;28;20226;-72
2023/09/01 15:19:23;;;;;;;1.13;0.70;;;;;;;;;;10417642;28;20242;-71
2023/09/01 15:24:24;;;;;;;0.60;0.60;;;;;;;;;;10404156;28;20218;-72
2023/09/01 15:29:25;;;;;;;1.23;0.70;;;;;;;;;;10425385;28;20215;-72
2023/09/01 15:34:26;;;;;;;1.05;0.70;;;;;;;;;;10421309;28;20207;-70
2023/09/01 15:39:29;;;;;;;1.55;0.88;;;;;;;;;;10426251;28;20271;-72
2023/09/01 15:44:30;;;;;;;1.10;1.00;;;;;;;;;;10424096;28;20469;-72
2023/09/01 15:49:31;;;;;;;0.90;0.90;;;;;;;;;;10427374;28;20225;-72
2023/09/01 15:54:32;;;;;;;1.15;1.10;;;;;;;;;;10421683;28;20207;-72
2023/09/01 15:59:33;;;;;;;0.80;0.80;;;;;;;;;;10429217;28;20269;-74
2023/09/01 16:04:34;;;;;;;1.17;0.80;;;;;;;;;;10409846;28;20613;-72
2023/09/01 16:09:35;;;;;;;1.95;0.70;;;;;;;;;;10426734;28;20214;-72
2023/09/01 16:14:36;;;;;;;2.28;0.70;;;;;;;;;;10410477;28;20225;-69
2023/09/01 16:19:37;;;;;;;1.50;1.40;;;;;;;;;;10409076;28;20306;-69
2023/09/01 16:24:38;;;;;;;1.00;0.90;;;;;;;;;;10423567;28;20206;-70
2023/09/01 16:29:43;;;;;;;1.05;1.02;;;;;;;;;;10431513;28;20306;-71
2023/09/01 16:34:44;;;;;;;0.93;0.93;;;;;;;;;;10430517;28;20203;-72
2023/09/01 16:39:46;;;;;;;2.33;1.20;;;;;;;;;;10424665;28;20214;-69
2023/09/01 16:44:48;;;;;;;1.00;1.00;;;;;;;;;;10429242;28;20637;-73
2023/09/01 16:49:49;;;;;;;3.90;0.98;;;;;;;;;;10431471;28;20338;-73
2023/09/01 16:54:50;;;;;;;1.17;0.63;;;;;;;;;;10429471;28;20211;-74
2023/09/01 16:59:51;;;;;;;0.75;0.30;;;;;;;;;;10425692;28;20215;-71
2023/09/01 17:04:52;;;;;;;0.30;0.30;;;;;;;;;;10426600;28;20203;-71
2023/09/01 17:10:05;;;;;;;0.30;0.30;;;;;;;;;;10414065;28;20220;-71
2023/09/01 17:15:06;;;;;;;3.30;0.30;;;;;;;;;;10425977;28;20263;-74
2023/09/01 17:20:08;;;;;;;0.20;0.20;;;;;;;;;;10412317;28;20207;-74
2023/09/01 17:25:09;;;;;;;0.30;0.30;;;;;;;;;;10408875;28;20191;-73
2023/09/01 17:30:10;;;;;;;0.30;0.30;;;;;;;;;;10413091;28;20249;-71
2023/09/01 17:35:11;;;;;;;0.57;0.57;;;;;;;;;;10413052;28;20191;-71
2023/09/01 17:40:12;;;;;;;0.55;0.35;;;;;;;;;;10423816;28;20635;-70
2023/09/01 17:45:14;;;;;;;0.60;0.60;;;;;;;;;;10404253;28;20602;-70
2023/09/01 17:50:15;;;;;;;0.30;0.30;;;;;;;;;;10405208;28;20281;-73
2023/09/01 17:55:16;;;;;;;0.30;0.30;;;;;;;;;;10398356;28;20194;-73
2023/09/01 18:00:18;;;;;;;0.35;0.32;;;;;;;;;;10404134;28;20449;-70
2023/09/01 18:05:19;;;;;;;0.30;0.30;;;;;;;;;;10415120;28;20199;-73
2023/09/01 18:10:20;;;;;;;0.47;0.47;;;;;;;;;;10418673;28;20832;-70
2023/09/01 18:15:21;;;;;;;0.40;0.40;;;;;;;;;;10402242;28;20759;-72
2023/09/01 18:20:24;;;;;;;0.50;0.50;;;;;;;;;;10400117;28;20213;-70
2023/09/01 18:25:26;;;;;;;0.50;0.50;;;;;;;;;;10414591;28;20222;-70
2023/09/01 18:30:29;;;;;;;1.38;0.50;;;;;;;;;;10407559;28;20741;-71
2023/09/01 18:35:30;;;;;;;0.55;0.40;;;;;;;;;;10422386;28;20363;-73
2023/09/01 18:40:32;;;;;;;0.30;0.30;;;;;;;;;;10411076;28;20267;-71
2023/09/01 18:45:34;;;;;;;0.40;0.40;;;;;;;;;;10430461;28;20222;-70
2023/09/01 18:50:40;;;;;;;0.30;0.30;;;;;;;;;;10420947;28;20223;-71
2023/09/01 18:55:42;;;;;;;0.70;0.28;;;;;;;;;;10421813;28;20215;-72
2023/09/01 19:00:45;;;;;;;0.40;0.40;;;;;;;;;;10408275;28;20216;-71
2023/09/01 19:05:47;;;;;;;0.32;0.32;;;;;;;;;;10422524;28;20221;-70
2023/09/01 19:10:51;;;;;;;0.38;0.38;;;;;;;;;;10428346;28;20243;-71
2023/09/01 19:15:55;;;;;;;0.40;0.40;;;;;;;;;;10424892;28;20625;-76
2023/09/01 19:20:57;;;;;;;0.55;0.45;;;;;;;;;;10412954;28;20578;-71
2023/09/01 19:25:59;;;;;;;0.40;0.40;;;;;;;;;;10424224;28;20735;-72
2023/09/01 19:31:03;;;;;;;0.52;0.52;;;;;;;;;;10429209;28;20309;-71
2023/09/01 19:36:04;;;;;;;0.40;0.40;;;;;;;;;;10419098;28;20219;-69
2023/09/01 19:41:07;;;;;;;0.50;0.50;;;;;;;;;;10407433;28;20669;-75
2023/09/01 19:46:08;;;;;;;0.40;0.40;;;;;;;;;;10413503;28;20218;-74
2023/09/01 19:51:09;;;;;;;0.60;0.60;;;;;;;;;;10426581;28;20219;-75
2023/09/01 19:56:15;;;;;;;1.00;0.57;;;;;;;;;;10405121;28;20212;-76
2023/09/01 20:01:23;;;;;;;0.60;0.60;;;;;;;;;;10426637;28;20211;-75
2023/09/01 20:06:27;;;;;;;1.77;0.70;;;;;;;;;;10428668;28;20678;-72
2023/09/01 20:11:29;;;;;;;1.95;1.30;;;;;;;;;;10430101;28;20219;-73
2023/09/01 20:16:30;;;;;;;0.80;0.80;;;;;;;;;;10429552;28;20325;-74
2023/09/01 20:21:32;;;;;;;1.67;0.93;;;;;;;;;;10409708;28;20219;-73
2023/09/01 20:26:33;;;;;;;3.60;1.38;;;;;;;;;;10427569;28;20215;-73
2023/09/01 20:31:34;;;;;;;2.55;1.63;;;;;;;;;;10421035;28;20226;-72
2023/09/01 20:36:35;;;;;;;2.42;1.88;;;;;;;;;;10425484;28;20210;-75
2023/09/01 20:41:36;;;;;;;2.00;1.88;;;;;;;;;;10408683;28;20211;-72
2023/09/01 20:46:39;;;;;;;1.50;1.50;;;;;;;;;;10418866;28;20593;-72
2023/09/01 20:51:40;;;;;;;2.28;1.50;;;;;;;;;;10427233;28;20219;-72
2023/09/01 20:56:42;;;;;;;1.48;1.48;;;;;;;;;;10427939;28;20302;-73
2023/09/01 21:01:43;;;;;;;1.58;1.48;;;;;;;;;;10406085;28;20211;-73
2023/09/01 21:06:44;;;;;;;1.95;1.75;;;;;;;;;;10425136;28;20361;-71
2023/09/01 21:11:45;;;;;;;3.47;1.70;;;;;;;;;;10425266;28;20646;-70
2023/09/01 21:16:46;;;;;;;2.47;1.70;;;;;;;;;;10427499;28;20238;-74
2023/09/01 21:21:48;;;;;;;1.80;1.67;;;;;;;;;;10424059;28;20289;-74
2023/09/01 21:26:51;;;;;;;2.13;1.88;;;;;;;;;;10408603;28;20211;-73
2023/09/01 21:31:52;;;;;;;2.65;2.05;;;;;;;;;;10423369;28;20229;-76
2023/09/01 21:36:54;;;;;;;2.65;1.75;;;;;;;;;;10424095;28;20621;-70
2023/09/01 21:41:55;;;;;;;1.90;1.80;;;;;;;;;;10407899;28;20638;-71
2023/09/01 21:46:56;;;;;;;1.75;1.40;;;;;;;;;;10421769;28;20211;-73
2023/09/01 21:51:57;;;;;;;2.03;1.92;;;;;;;;;;10422486;28;20215;-73
2023/09/01 21:56:58;;;;;;;2.70;1.55;;;;;;;;;;10408210;28;20223;-72
2023/09/01 22:01:59;;;;;;;2.38;2.17;;;;;;;;;;10423586;28;20856;-72
2023/09/01 22:07:03;;;;;;;2.10;2.00;;;;;;;;;;10421890;28;20218;-71
2023/09/01 22:12:04;;;;;;;2.63;2.47;;;;;;;;;;10425799;28;20215;-71
2023/09/01 22:17:05;;;;;;;1.92;1.70;;;;;;;;;;10430516;28;20273;-72
2023/09/01 22:22:07;;;;;;;2.65;1.92;;;;;;;;;;10422295;28;20226;-70
2023/09/01 22:27:08;;;;;;;3.80;1.60;;;;;;;;;;10423895;28;20321;-71
2023/09/01 22:32:12;;;;;;;2.20;2.10;;;;;;;;;;10418706;28;20230;-73
2023/09/01 22:37:13;;;;;;;2.00;1.90;;;;;;;;;;10421121;28;20229;-71
2023/09/01 22:42:14;;;;;;;1.65;1.58;;;;;;;;;;10423828;28;20214;-75
2023/09/01 22:47:15;;;;;;;1.63;1.60;;;;;;;;;;10417720;28;20660;-72
2023/09/01 22:52:16;;;;;;;2.17;1.92;;;;;;;;;;10422272;28;20211;-71
2023/09/01 22:57:17;;;;;;;2.45;2.30;;;;;;;;;;10419792;28;20222;-73
2023/09/01 23:02:19;;;;;;;1.95;1.85;;;;;;;;;;10426873;28;20229;-72
2023/09/01 23:07:20;;;;;;;1.10;1.10;;;;;;;;;;10403235;28;20844;-74
2023/09/01 23:12:21;;;;;;;1.23;1.23;;;;;;;;;;10418897;28;20595;-73
2023/09/01 23:17:22;;;;;;;1.60;1.50;;;;;;;;;;10421419;28;20635;-70
2023/09/01 23:22:26;;;;;;;1.80;1.73;;;;;;;;;;10402010;28;20237;-71
2023/09/01 23:27:27;;;;;;;1.75;1.75;;;;;;;;;;10420278;28;20219;-75
2023/09/01 23:32:28;;;;;;;3.55;2.15;;;;;;;;;;10421252;28;20227;-71
2023/09/01 23:37:29;;;;;;;2.40;2.22;;;;;;;;;;10426671;28;20277;-75
2023/09/01 23:42:30;;;;;;;1.77;1.70;;;;;;;;;;10427493;28;20719;-72
2023/09/01 23:47:31;;;;;;;1.58;1.58;;;;;;;;;;10428379;28;20242;-71
2023/09/01 23:52:32;;;;;;;2.65;2.40;;;;;;;;;;10426642;28;20697;-70
2023/09/01 23:57:34;;;;;;;2.97;2.20;;;;;;;;;;10424620;28;21023;-72
